Strona główna
METAR-TAF:

METAR-TAF

Lotnisko :

North Central State Airport

Pawtucket, Rhode Island, Stany Zjednoczone

Szerokość geograficzna: 41-55N, Długość geograficzna: 071-30W, wysokość: 134 m

Aktualna obserwacja pogody

Raport powstał 46 minut temu, godzina 00:56 UTC
Wiatr 12 kt od zachodnio-północny zachód w porywach dochodzący do 20 kt
Temperatura -7°C
Wilgotność 53%
Ciśnienie 1014 hPa
Widzialność: 16.1 km
bezchmurnie

METAR: KSFZ 240056Z AUTO 30012G20KT 10SM CLR M07/M15 A2995 RMK AO2 PK WND 32027/0014 SLP092 T10721150 FZRANO $

czas: 20:42 (01:42 UTC)


TAF: brakujący

Obserwacja i prognoza pogody dla ponad 4000 lotnisk (raport METAR i TAF).

Dostępne stacje oznaczono żółtymi i czerwonymi punktami na mapie.

Najedź kursorem aby zobaczyć nazwę stacji.

Kliknij aby zobaczyć obserwacje i prognozy pogody.

Aby zmienić mapę: kliknij na zielony przycisk z czarnym krzyżykiem, aby powiększyć; na zielony przycisk z myślnikiem, aby pomniejszyć; na zielone strzałki, aby przejść do map sąsiednich.


METAR-TAF: